createdAt,value
2019-05-11T00:02:15.281Z,21.23
2019-05-11T00:04:43.725Z,21.45
2019-05-11T00:07:12.511Z,20.97
2019-05-11T00:09:55.678Z,20.77
2019-05-11T00:12:11.101Z,19.73
2019-05-11T00:14:39.505Z,18.82
2019-05-11T00:17:07.920Z,17.75
2019-05-11T00:19:36.375Z,19.77
2019-05-11T00:22:04.794Z,15.38
2019-05-11T00:24:33.226Z,17.62
2019-05-11T00:27:01.631Z,16.05
2019-05-11T00:29:30.257Z,15.60
2019-05-11T00:31:58.738Z,9.95
2019-05-11T00:34:27.251Z,11.28
2019-05-11T00:36:56.715Z,14.70
2019-05-11T00:39:28.148Z,10.75
2019-05-11T00:41:56.618Z,13.70
2019-05-11T00:44:25.051Z,14.73
2019-05-11T00:46:55.569Z,7.95
2019-05-11T00:49:25.058Z,5.83
2019-05-11T00:51:53.781Z,13.40
2019-05-11T00:54:22.229Z,13.40
2019-05-11T00:56:52.785Z,9.45
2019-05-11T00:59:23.704Z,4.70
2019-05-11T01:01:52.143Z,7.17
2019-05-11T01:04:20.611Z,7.40
2019-05-11T01:06:49.050Z,7.65
2019-05-11T01:09:19.331Z,7.45
2019-05-11T01:11:47.734Z,8.95
2019-05-11T01:14:16.136Z,12.30
2019-05-11T01:16:45.044Z,12.85
2019-05-11T01:19:14.523Z,12.82
2019-05-11T01:21:42.965Z,10.65
2019-05-11T01:24:11.381Z,11.53
2019-05-11T01:26:40.958Z,12.30
2019-05-11T01:29:10.478Z,11.65
2019-05-11T01:31:38.918Z,14.50
2019-05-11T01:34:07.339Z,16.33
2019-05-11T01:36:35.734Z,17.92
2019-05-11T01:39:06.042Z,18.27
2019-05-11T01:41:34.475Z,18.67
2019-05-11T01:44:02.930Z,21.12
2019-05-11T01:46:31.341Z,19.98
2019-05-11T01:48:59.778Z,14.83
2019-05-11T01:51:29.258Z,6.05
2019-05-11T01:53:57.730Z,4.42
2019-05-11T01:56:26.157Z,8.23
2019-05-11T01:58:54.634Z,10.23
2019-05-11T02:01:23.067Z,13.38
2019-05-11T02:03:51.522Z,16.52
2019-05-11T02:06:19.943Z,16.50
2019-05-11T02:08:48.380Z,21.12
2019-05-11T02:11:16.865Z,21.57
2019-05-11T02:13:45.271Z,17.48
2019-05-11T02:16:13.715Z,20.70
2019-05-11T02:18:43.238Z,15.30
2019-05-11T02:21:15.646Z,9.48
2019-05-11T02:26:11.712Z,8.65
2019-05-11T02:28:41.761Z,7.85
2019-05-11T02:31:10.147Z,7.70
2019-05-11T02:33:38.548Z,8.13
2019-05-11T02:36:06.982Z,15.03
2019-05-11T02:38:35.415Z,16.93
2019-05-11T02:41:03.840Z,22.10
2019-05-11T02:43:32.266Z,20.80
2019-05-11T02:46:00.700Z,16.90
2019-05-11T02:48:29.322Z,17.92
2019-05-11T02:51:00.367Z,21.87
2019-05-11T02:53:32.891Z,14.18
2019-05-11T02:56:02.026Z,14.80
2019-05-11T02:58:31.450Z,21.37
2019-05-11T03:01:03.401Z,22.63
2019-05-11T03:03:31.882Z,21.85
2019-05-11T03:06:00.301Z,24.50
2019-05-11T03:08:31.226Z,21.70
2019-05-11T03:10:59.634Z,24.85
2019-05-11T03:13:30.746Z,25.35
2019-05-11T03:16:03.163Z,22.83
2019-05-11T03:18:35.412Z,22.65
2019-05-11T03:21:03.929Z,15.93
2019-05-11T03:23:34.160Z,11.85
2019-05-11T03:26:06.362Z,10.28
2019-05-11T03:28:34.778Z,7.67
2019-05-11T03:31:04.029Z,10.43
2019-05-11T03:33:32.487Z,13.48
2019-05-11T03:36:00.909Z,15.15
2019-05-11T03:38:31.814Z,17.62
2019-05-11T03:41:00.246Z,15.50
2019-05-11T03:43:28.653Z,20.00
2019-05-11T03:45:57.098Z,20.68
2019-05-11T03:48:25.510Z,15.68
2019-05-11T03:50:53.955Z,19.77
2019-05-11T03:53:23.482Z,22.25
2019-05-11T03:55:51.907Z,17.97
2019-05-11T03:58:25.208Z,20.80
2019-05-11T04:00:50.501Z,27.30
2019-05-11T04:03:18.903Z,18.73
2019-05-11T04:05:47.335Z,22.07
2019-05-11T04:08:15.746Z,18.27
2019-05-11T04:10:46.593Z,19.67
2019-05-11T04:13:15.052Z,20.82
2019-05-11T04:15:44.501Z,21.55
2019-05-11T04:18:16.828Z,19.62
2019-05-11T04:20:45.333Z,16.12
2019-05-11T04:23:18.849Z,15.72
2019-05-11T04:25:47.245Z,18.52
2019-05-11T04:28:19.352Z,15.95
2019-05-11T04:30:47.778Z,17.37
2019-05-11T04:33:16.452Z,15.98
2019-05-11T04:35:45.050Z,16.80
2019-05-11T04:38:13.851Z,14.78
2019-05-11T04:40:44.895Z,18.37
2019-05-11T04:43:13.615Z,16.60
2019-05-11T04:45:42.094Z,14.83
2019-05-11T04:48:10.631Z,18.17
2019-05-11T04:50:41.620Z,19.50
2019-05-11T04:53:10.267Z,18.05
2019-05-11T04:55:38.946Z,19.12
2019-05-11T04:58:07.535Z,16.50
2019-05-11T05:00:36.232Z,18.35
2019-05-11T05:03:04.922Z,19.95
2019-05-11T05:05:33.588Z,21.35
2019-05-11T05:08:09.565Z,21.85
2019-05-11T05:10:32.649Z,22.58
2019-05-11T05:13:10.088Z,22.85
2019-05-11T05:15:31.743Z,21.65
2019-05-11T05:18:00.283Z,28.62
2019-05-11T05:20:28.870Z,20.77
2019-05-11T05:22:57.347Z,21.70
2019-05-11T05:25:25.924Z,21.03
2019-05-11T05:27:54.518Z,19.65
2019-05-11T05:30:24.125Z,21.57
2019-05-11T05:32:52.661Z,18.80
2019-05-11T05:35:21.117Z,13.60
2019-05-11T05:37:49.886Z,13.55
2019-05-11T05:40:18.875Z,14.10
2019-05-11T05:42:48.525Z,16.10
2019-05-11T05:45:17.371Z,13.43
2019-05-11T05:47:46.048Z,18.50
2019-05-11T05:50:15.904Z,13.83
2019-05-11T05:52:44.624Z,15.53
2019-05-11T05:55:14.742Z,13.15
2019-05-11T05:57:45.069Z,16.62
2019-05-11T06:00:14.279Z,10.88
2019-05-11T06:02:42.867Z,12.45
2019-05-11T06:05:11.817Z,13.58
2019-05-11T06:07:42.185Z,11.20
2019-05-11T06:10:11.345Z,11.57
2019-05-11T06:12:41.067Z,11.88
2019-05-11T06:15:10.287Z,18.27
2019-05-11T06:17:49.649Z,10.85
2019-05-11T06:20:21.011Z,12.88
2019-05-11T06:22:49.237Z,10.82
2019-05-11T06:25:18.645Z,13.45
2019-05-11T06:27:47.504Z,13.30
2019-05-11T06:30:17.552Z,8.57
2019-05-11T06:32:45.964Z,11.15
2019-05-11T06:35:15.714Z,6.10
2019-05-11T06:37:44.151Z,5.95
2019-05-11T06:40:13.399Z,17.57
2019-05-11T06:42:42.307Z,9.08
2019-05-11T06:45:14.212Z,12.33
2019-05-11T06:47:42.803Z,7.33
2019-05-11T06:50:11.942Z,11.15
2019-05-11T06:52:40.406Z,10.13
2019-05-11T06:55:10.130Z,8.90
2019-05-11T06:57:38.540Z,10.80
2019-05-11T07:00:08.792Z,12.00
2019-05-11T07:02:37.331Z,14.00
2019-05-11T07:05:08.956Z,9.45
2019-05-11T07:07:47.037Z,8.20
2019-05-11T07:10:09.726Z,10.35
2019-05-11T07:12:38.121Z,9.18
2019-05-11T07:15:07.399Z,9.33
2019-05-11T07:17:35.821Z,7.70
2019-05-11T07:20:06.272Z,9.75
2019-05-11T07:22:34.714Z,8.13
2019-05-11T07:25:03.623Z,12.20
2019-05-11T07:27:32.038Z,9.63
2019-05-11T07:30:00.453Z,10.32
2019-05-11T07:32:29.421Z,7.72
2019-05-11T07:34:57.918Z,7.60
2019-05-11T07:37:28.048Z,8.80
2019-05-11T07:39:58.040Z,6.03
2019-05-11T07:42:28.616Z,10.65
2019-05-11T07:44:58.274Z,9.75
2019-05-11T07:47:27.824Z,9.78
2019-05-11T07:49:57.921Z,6.90
2019-05-11T07:52:28.577Z,8.00
2019-05-11T07:54:58.044Z,8.23
2019-05-11T07:57:29.088Z,4.60
2019-05-11T07:59:57.941Z,10.05
2019-05-11T08:02:28.527Z,5.40
2019-05-11T08:04:58.750Z,9.60
2019-05-11T08:07:28.513Z,5.78
2019-05-11T08:09:58.742Z,7.08
2019-05-11T08:12:29.902Z,7.45
2019-05-11T08:15:08.038Z,5.23
2019-05-11T08:17:37.942Z,7.35
2019-05-11T08:20:04.290Z,6.60
2019-05-11T08:22:32.717Z,9.78
2019-05-11T08:25:01.333Z,13.15
2019-05-11T08:27:29.762Z,4.95
2019-05-11T08:29:58.346Z,8.78
2019-05-11T08:32:28.610Z,6.60
2019-05-11T08:34:58.042Z,6.33
2019-05-11T08:37:30.424Z,5.55
2019-05-11T08:40:01.657Z,7.55
2019-05-11T08:42:30.194Z,4.97
2019-05-11T08:45:16.170Z,6.95
2019-05-11T08:47:31.364Z,6.42
2019-05-11T08:50:00.921Z,9.98
2019-05-11T08:52:29.325Z,7.58
2019-05-11T08:54:57.968Z,5.75
2019-05-11T08:57:28.937Z,10.82
2019-05-11T08:59:59.976Z,9.10
2019-05-11T09:02:28.387Z,4.83
2019-05-11T09:04:58.896Z,7.72
2019-05-11T09:07:34.302Z,8.15
2019-05-11T09:10:02.720Z,9.58
2019-05-11T09:12:31.208Z,8.28
2019-05-11T09:15:02.470Z,4.55
2019-05-11T09:17:30.970Z,7.67
2019-05-11T09:19:59.385Z,11.78
2019-05-11T09:22:28.496Z,8.90
2019-05-11T09:24:58.254Z,4.60
2019-05-11T09:27:28.632Z,9.43
2019-05-11T09:29:58.830Z,7.92
2019-05-11T09:32:28.493Z,5.40
2019-05-11T09:34:57.977Z,7.03
2019-05-11T09:37:27.731Z,4.72
2019-05-11T09:39:58.326Z,7.85
2019-05-11T09:42:28.605Z,5.00
2019-05-11T09:44:58.224Z,5.95
2019-05-11T09:47:27.915Z,9.15
2019-05-11T09:49:58.216Z,6.42
2019-05-11T09:52:32.073Z,8.30
2019-05-11T09:54:58.712Z,6.25
2019-05-11T09:57:30.221Z,9.60
2019-05-11T09:59:58.816Z,5.50
2019-05-11T10:02:28.001Z,4.33
2019-05-11T10:04:57.852Z,6.62
2019-05-11T10:07:32.448Z,5.78
2019-05-11T10:09:59.314Z,5.97
2019-05-11T10:12:29.647Z,10.60
2019-05-11T10:14:59.133Z,9.00
2019-05-11T10:17:30.774Z,7.65
2019-05-11T10:19:59.241Z,10.40
2019-05-11T10:22:30.083Z,7.95
2019-05-11T10:24:58.892Z,8.18
2019-05-11T10:27:28.032Z,8.75
2019-05-11T10:29:58.781Z,4.97
2019-05-11T10:32:30.341Z,7.28
2019-05-11T10:34:58.829Z,7.28
2019-05-11T10:37:28.306Z,4.17
2019-05-11T10:39:57.764Z,6.92
2019-05-11T10:42:28.392Z,6.45
2019-05-11T10:44:59.254Z,4.53
2019-05-11T10:47:30.149Z,11.33
2019-05-11T10:50:02.788Z,7.03
2019-05-11T10:52:31.454Z,6.15
2019-05-11T10:55:02.442Z,5.85
2019-05-11T10:57:30.859Z,5.33
2019-05-11T10:59:59.443Z,4.62
2019-05-11T11:02:28.103Z,10.48
2019-05-11T11:04:58.712Z,5.80
2019-05-11T11:07:38.800Z,4.30
2019-05-11T11:10:13.509Z,5.80
2019-05-11T11:12:57.793Z,6.92
2019-05-11T11:15:28.881Z,6.72
2019-05-11T11:17:57.921Z,11.93
2019-05-11T11:20:31.568Z,6.28
2019-05-11T11:23:02.302Z,7.42
2019-05-11T11:25:30.432Z,8.53
2019-05-11T11:27:58.893Z,6.85
2019-05-11T11:30:28.551Z,6.03
2019-05-11T11:32:58.851Z,4.03
2019-05-11T11:35:27.956Z,9.20
2019-05-11T11:37:59.083Z,10.78
2019-05-11T11:40:28.148Z,6.33
2019-05-11T11:42:58.064Z,12.90
2019-05-11T11:45:28.848Z,5.62
2019-05-11T11:47:59.424Z,5.65
2019-05-11T11:50:28.917Z,10.08
2019-05-11T11:52:57.856Z,7.42
2019-05-11T11:55:28.794Z,9.50
2019-05-11T11:57:59.337Z,5.37
2019-05-11T12:00:28.789Z,5.22
2019-05-11T12:02:58.112Z,5.72
2019-05-11T12:05:28.387Z,6.53
2019-05-11T12:08:00.809Z,4.92
2019-05-11T12:10:29.202Z,5.37
2019-05-11T12:12:58.200Z,4.42
2019-05-11T12:15:28.971Z,3.08
2019-05-11T12:17:58.734Z,5.87
2019-05-11T12:20:28.677Z,5.67
2019-05-11T12:22:59.025Z,6.35
2019-05-11T12:25:27.976Z,4.95
2019-05-11T12:27:57.847Z,8.35
2019-05-11T12:30:30.116Z,4.25
2019-05-11T12:32:58.526Z,5.10
2019-05-11T12:35:28.430Z,9.45
2019-05-11T12:37:58.766Z,8.65
2019-05-11T12:40:28.213Z,4.22
2019-05-11T12:42:59.049Z,5.62
2019-05-11T12:45:29.359Z,7.00
2019-05-11T12:47:58.650Z,9.28
2019-05-11T12:50:28.651Z,5.92
2019-05-11T12:52:58.868Z,12.73
2019-05-11T12:55:33.955Z,4.95
2019-05-11T12:58:02.407Z,6.60
2019-05-11T13:00:31.575Z,9.65
2019-05-11T13:03:00.537Z,6.97
2019-05-11T13:05:29.021Z,6.75
2019-05-11T13:07:58.670Z,7.37
2019-05-11T13:10:28.651Z,9.48
2019-05-11T13:12:58.993Z,6.35
2019-05-11T13:15:28.226Z,5.10
2019-05-11T13:17:58.096Z,3.37
2019-05-11T13:20:28.510Z,7.15
2019-05-11T13:22:58.712Z,4.60
2019-05-11T13:25:28.244Z,7.42
2019-05-11T13:27:58.116Z,2.98
2019-05-11T13:30:27.826Z,4.08
2019-05-11T13:32:57.923Z,4.95
2019-05-11T13:35:29.609Z,12.33
2019-05-11T13:37:58.561Z,5.28
2019-05-11T13:40:27.794Z,6.35
2019-05-11T13:42:58.129Z,6.58
2019-05-11T13:45:28.263Z,5.08
2019-05-11T13:47:59.239Z,3.67
2019-05-11T13:50:29.646Z,4.42
2019-05-11T13:52:58.532Z,4.62
2019-05-11T13:55:28.547Z,5.78
2019-05-11T13:57:57.823Z,3.12
2019-05-11T14:00:28.649Z,6.62
2019-05-11T14:02:58.608Z,4.72
2019-05-11T14:05:28.505Z,4.92
2019-05-11T14:07:58.733Z,3.42
2019-05-11T14:10:28.205Z,5.80
2019-05-11T14:13:09.387Z,3.92
2019-05-11T14:15:30.770Z,3.27
2019-05-11T14:19:03.954Z,6.55
2019-05-11T14:20:58.632Z,5.45
2019-05-11T14:23:31.596Z,8.40
2019-05-11T14:26:00.345Z,3.60
2019-05-11T14:28:29.016Z,3.87
2019-05-11T14:30:57.924Z,7.03
2019-05-11T14:33:28.254Z,4.62
2019-05-11T14:35:57.996Z,4.87
2019-05-11T14:38:30.225Z,5.60
2019-05-11T14:43:30.469Z,6.47
2019-05-11T14:45:58.979Z,6.03
2019-05-11T14:48:30.073Z,7.22
2019-05-11T14:50:59.361Z,8.93
2019-05-11T14:53:31.033Z,7.85
2019-05-11T14:56:02.049Z,13.40
2019-05-11T14:58:31.568Z,6.33
2019-05-11T15:01:02.551Z,4.60
2019-05-11T15:03:33.517Z,7.05
2019-05-11T15:06:05.538Z,6.00
2019-05-11T15:08:33.967Z,10.40
2019-05-11T15:11:08.120Z,5.08
2019-05-11T15:13:38.270Z,3.30
2019-05-11T15:16:08.107Z,3.35
2019-05-11T15:18:41.751Z,6.08
2019-05-11T15:21:08.228Z,4.33
2019-05-11T15:23:40.755Z,6.45
2019-05-11T15:26:10.024Z,3.60
2019-05-11T15:28:39.206Z,8.00
2019-05-11T15:31:08.694Z,6.08
2019-05-11T15:33:41.302Z,5.28
2019-05-11T15:36:09.990Z,6.47
2019-05-11T15:38:38.545Z,4.10
2019-05-11T15:41:08.327Z,7.35
2019-05-11T15:43:40.961Z,11.45
2019-05-11T15:46:19.672Z,4.12
2019-05-11T15:48:58.852Z,5.17
2019-05-11T15:51:24.436Z,3.10
2019-05-11T15:53:53.203Z,3.40
2019-05-11T15:56:23.884Z,5.22
2019-05-11T15:58:52.141Z,2.55
2019-05-11T16:01:20.584Z,3.70
2019-05-11T16:03:52.757Z,1.72
2019-05-11T16:06:21.486Z,5.17
2019-05-11T16:08:50.010Z,3.75
2019-05-11T16:11:20.974Z,4.83
2019-05-11T16:13:49.451Z,6.15
2019-05-11T16:16:22.017Z,5.12
2019-05-11T16:18:50.734Z,6.45
2019-05-11T16:21:22.032Z,2.43
2019-05-11T16:23:54.150Z,2.92
2019-05-11T16:26:22.553Z,5.35
2019-05-11T16:28:51.785Z,3.08
2019-05-11T16:31:20.151Z,4.80
2019-05-11T16:33:48.898Z,3.33
2019-05-11T16:36:18.196Z,5.50
2019-05-11T16:38:48.364Z,5.83
2019-05-11T16:41:21.086Z,2.15
2019-05-11T16:43:48.605Z,3.95
2019-05-11T16:46:17.725Z,4.05
2019-05-11T16:48:46.387Z,5.80
2019-05-11T16:51:14.859Z,3.05
2019-05-11T16:53:43.469Z,1.87
2019-05-11T16:56:14.740Z,3.77
2019-05-11T16:58:43.196Z,3.70
2019-05-11T17:01:11.637Z,3.05
2019-05-11T17:03:48.195Z,3.27
2019-05-11T17:06:15.751Z,5.80
2019-05-11T17:08:44.647Z,7.78
2019-05-11T17:11:13.154Z,5.60
2019-05-11T17:13:41.912Z,3.92
2019-05-11T17:16:10.320Z,6.07
2019-05-11T17:18:40.561Z,7.22
2019-05-11T17:21:12.517Z,7.03
2019-05-11T17:23:48.729Z,2.72
2019-05-11T17:26:19.061Z,4.62
2019-05-11T17:28:50.151Z,6.25
2019-05-11T17:31:19.040Z,8.75
2019-05-11T17:33:47.843Z,2.35
2019-05-11T17:36:18.648Z,8.60
2019-05-11T17:38:48.112Z,4.15
2019-05-11T17:41:16.516Z,3.25
2019-05-11T17:43:47.966Z,7.35
2019-05-11T17:46:18.423Z,7.03
2019-05-11T17:48:46.951Z,4.37
2019-05-11T17:51:21.236Z,4.67
2019-05-11T17:53:45.516Z,4.78
2019-05-11T17:56:14.113Z,4.37
2019-05-11T17:58:42.520Z,5.40
2019-05-11T18:01:10.974Z,5.05
2019-05-11T18:03:39.377Z,6.85
2019-05-11T18:06:10.243Z,7.37
2019-05-11T18:08:38.662Z,5.28
2019-05-11T18:11:08.370Z,7.17
2019-05-11T18:13:38.954Z,6.35
2019-05-11T18:16:08.504Z,4.47
2019-05-11T18:18:37.819Z,2.12
2019-05-11T18:21:08.508Z,3.08
2019-05-11T18:23:38.642Z,5.53
2019-05-11T18:26:08.622Z,4.22
2019-05-11T18:28:37.976Z,4.20
2019-05-11T18:31:06.427Z,6.73
2019-05-11T18:33:34.917Z,5.40
2019-05-11T18:36:03.314Z,9.75
2019-05-11T18:38:31.948Z,6.62
2019-05-11T18:41:00.362Z,7.50
2019-05-11T18:43:30.721Z,4.05
2019-05-11T18:45:59.188Z,5.78
2019-05-11T18:48:30.312Z,5.55
2019-05-11T18:50:59.315Z,5.53
2019-05-11T18:53:28.847Z,6.45
2019-05-11T18:55:59.005Z,9.68
2019-05-11T18:58:27.937Z,7.15
2019-05-11T19:00:56.584Z,6.17
2019-05-11T19:03:24.982Z,4.87
2019-05-11T19:05:53.448Z,5.20
2019-05-11T19:08:21.824Z,5.53
2019-05-11T19:10:50.256Z,2.33
2019-05-11T19:13:19.772Z,4.67
2019-05-11T19:15:48.858Z,5.47
2019-05-11T19:18:17.400Z,4.65
2019-05-11T19:20:49.103Z,6.50
2019-05-11T19:23:19.309Z,3.77
2019-05-11T19:28:19.072Z,4.80
2019-05-11T19:30:48.825Z,4.83
2019-05-11T19:33:18.988Z,7.90
2019-05-11T19:35:48.236Z,7.92
2019-05-11T19:38:18.749Z,7.47
2019-05-11T19:40:48.436Z,8.33
2019-05-11T19:43:18.505Z,7.80
2019-05-11T19:45:48.655Z,8.25
2019-05-11T19:48:18.066Z,7.12
2019-05-11T19:51:00.904Z,8.78
2019-05-11T19:53:18.777Z,7.50
2019-05-11T19:55:48.238Z,7.92
2019-05-11T19:58:19.118Z,7.08
2019-05-11T20:00:48.820Z,8.90
2019-05-11T20:03:20.591Z,10.25
2019-05-11T20:05:49.095Z,5.40
2019-05-11T20:08:18.473Z,6.20
2019-05-11T20:10:48.678Z,7.58
2019-05-11T20:13:20.894Z,6.42
2019-05-11T20:15:52.087Z,5.65
2019-05-11T20:18:20.493Z,7.30
2019-05-11T20:20:48.906Z,6.47
2019-05-11T20:23:17.312Z,8.83
2019-05-11T20:25:47.780Z,6.17
2019-05-11T20:28:18.122Z,16.65
2019-05-11T20:30:48.105Z,3.98
2019-05-11T20:33:18.729Z,11.75
2019-05-11T20:35:48.901Z,7.10
2019-05-11T20:38:18.768Z,4.47
2019-05-11T20:40:48.491Z,9.73
2019-05-11T20:43:18.538Z,8.28
2019-05-11T20:45:48.709Z,6.08
2019-05-11T20:48:18.500Z,8.70
2019-05-11T20:50:48.342Z,11.15
2019-05-11T20:53:18.224Z,4.05
2019-05-11T20:55:47.828Z,5.10
2019-05-11T20:58:18.947Z,7.70
2019-05-11T21:00:49.093Z,12.20
2019-05-11T21:03:17.717Z,5.12
2019-05-11T21:05:48.117Z,11.78
2019-05-11T21:08:17.760Z,5.45
2019-05-11T21:10:48.822Z,7.90
2019-05-11T21:13:17.937Z,8.98
2019-05-11T21:15:47.948Z,8.73
2019-05-11T21:18:18.501Z,8.90
2019-05-11T21:20:48.378Z,7.23
2019-05-11T21:23:18.657Z,8.20
2019-05-11T21:25:48.058Z,7.40
2019-05-11T21:28:16.526Z,6.40
2019-05-11T21:30:48.074Z,8.50
2019-05-11T21:33:17.920Z,9.50
2019-05-11T21:35:48.771Z,12.50
2019-05-11T21:38:17.754Z,9.25
2019-05-11T21:40:48.411Z,6.40
2019-05-11T21:43:16.453Z,7.58
2019-05-11T21:45:48.207Z,8.30
2019-05-11T21:48:16.668Z,7.45
2019-05-11T21:50:45.085Z,7.28
2019-05-11T21:53:18.300Z,5.28
2019-05-11T21:55:48.019Z,9.75
2019-05-11T21:58:18.241Z,8.65
2019-05-11T22:00:50.351Z,9.30
2019-05-11T22:03:20.089Z,4.17
2019-05-11T22:05:48.588Z,14.87
2019-05-11T22:08:17.942Z,10.80
2019-05-11T22:10:46.404Z,9.13
2019-05-11T22:13:14.820Z,9.98
2019-05-11T22:15:43.240Z,12.25
2019-05-11T22:18:11.646Z,10.15
2019-05-11T22:20:40.929Z,11.78
2019-05-11T22:23:09.856Z,5.22
2019-05-11T22:25:39.287Z,8.10
2019-05-11T22:28:08.446Z,6.15
2019-05-11T22:30:39.082Z,9.40
2019-05-11T22:33:08.855Z,8.03
2019-05-11T22:35:37.886Z,10.75
2019-05-11T22:38:08.573Z,9.58
2019-05-11T22:40:38.336Z,9.58
2019-05-11T22:43:09.963Z,5.08
2019-05-11T22:45:42.245Z,9.45
2019-05-11T22:48:10.641Z,7.97
2019-05-11T22:50:39.809Z,10.32
2019-05-11T22:53:11.665Z,6.08
2019-05-11T22:55:39.050Z,11.85
2019-05-11T22:58:08.447Z,6.15
2019-05-11T23:00:43.624Z,6.87
2019-05-11T23:03:12.190Z,7.62
2019-05-11T23:05:41.928Z,9.85
2019-05-11T23:08:10.873Z,9.15
2019-05-11T23:10:39.294Z,6.87
2019-05-11T23:13:11.145Z,5.55
2019-05-11T23:15:40.293Z,9.15
2019-05-11T23:18:10.149Z,8.00
2019-05-11T23:20:38.913Z,6.70
2019-05-11T23:23:10.001Z,8.73
2019-05-11T23:25:38.414Z,8.90
2019-05-11T23:28:06.823Z,8.68
2019-05-11T23:30:35.251Z,10.20
2019-05-11T23:33:03.660Z,7.85
2019-05-11T23:35:32.054Z,8.88
2019-05-11T23:38:00.500Z,11.33
2019-05-11T23:40:28.917Z,5.58
2019-05-11T23:42:57.861Z,10.00
2019-05-11T23:45:27.986Z,12.40
2019-05-11T23:47:58.644Z,7.05
2019-05-11T23:50:28.191Z,7.20
2019-05-11T23:53:06.038Z,9.28
2019-05-11T23:55:28.917Z,8.10
2019-05-11T23:57:57.790Z,13.72
